createdAt,value
2023-04-16T00:02:25.796Z,100029.94
2023-04-16T00:04:52.981Z,100023.22
2023-04-16T00:07:19.765Z,100032.41
2023-04-16T00:09:46.951Z,100017.63
2023-04-16T00:12:13.807Z,100029.03
2023-04-16T00:14:40.881Z,100033.56
2023-04-16T00:17:07.745Z,100026.25
2023-04-16T00:19:34.881Z,100027.09
2023-04-16T00:22:01.848Z,100026.19
2023-04-16T00:24:28.938Z,100034.03
2023-04-16T00:26:56.015Z,100023.00
2023-04-16T00:29:23.467Z,100026.66
2023-04-16T00:31:50.352Z,100034.72
2023-04-16T00:34:17.497Z,100030.72
2023-04-16T00:36:44.318Z,100038.72
2023-04-16T00:39:11.487Z,100028.38
2023-04-16T00:41:38.827Z,100032.03
2023-04-16T00:44:05.929Z,100036.63
2023-04-16T00:46:33.074Z,100029.69
2023-04-16T00:49:01.320Z,100022.50
2023-04-16T00:51:28.506Z,100026.06
2023-04-16T00:53:57.018Z,100025.28
2023-04-16T00:56:24.972Z,100027.16
2023-04-16T00:58:52.087Z,100033.84
2023-04-16T01:01:18.926Z,100024.38
2023-04-16T01:03:48.201Z,100022.75
2023-04-16T01:06:17.514Z,100034.38
2023-04-16T01:08:45.133Z,100033.53
2023-04-16T01:11:12.223Z,100038.69
2023-04-16T01:13:39.705Z,100043.94
2023-04-16T01:16:08.392Z,100033.44
2023-04-16T01:18:36.660Z,100040.25
2023-04-16T01:21:04.092Z,100038.63
2023-04-16T01:23:31.440Z,100042.00
2023-04-16T01:25:58.295Z,100038.53
2023-04-16T01:28:25.785Z,100043.00
2023-04-16T01:30:52.668Z,100036.00
2023-04-16T01:33:21.827Z,100040.38
2023-04-16T01:35:48.601Z,100033.44
2023-04-16T01:38:15.817Z,100045.63
2023-04-16T01:40:42.606Z,100046.56
2023-04-16T01:43:09.720Z,100039.75
2023-04-16T01:45:36.520Z,100046.75
2023-04-16T01:48:04.261Z,100040.75
2023-04-16T01:50:31.541Z,100038.22
2023-04-16T01:52:58.694Z,100050.38
2023-04-16T01:55:25.536Z,100043.53
2023-04-16T01:57:52.644Z,100042.91
2023-04-16T02:00:19.513Z,100040.19
2023-04-16T02:02:47.386Z,100036.72
2023-04-16T02:05:14.336Z,100040.13
2023-04-16T02:07:41.420Z,100042.75
2023-04-16T02:10:10.349Z,100047.41
2023-04-16T02:12:37.517Z,100059.09
2023-04-16T02:15:05.002Z,100057.63
2023-04-16T02:17:32.094Z,100066.63
2023-04-16T02:19:58.899Z,100064.00
2023-04-16T02:22:25.967Z,100062.53
2023-04-16T02:24:52.797Z,100061.81
2023-04-16T02:27:19.868Z,100068.88
2023-04-16T02:29:49.456Z,100063.72
2023-04-16T02:32:16.614Z,100061.03
2023-04-16T02:34:43.486Z,100056.63
2023-04-16T02:37:10.799Z,100070.56
2023-04-16T02:39:37.661Z,100068.97
2023-04-16T02:42:04.764Z,100073.19
2023-04-16T02:44:31.554Z,100068.19
2023-04-16T02:46:58.632Z,100069.06
2023-04-16T02:49:25.491Z,100070.13
2023-04-16T02:51:52.592Z,100065.00
2023-04-16T02:54:19.373Z,100061.56
2023-04-16T02:56:46.454Z,100057.13
2023-04-16T02:59:13.218Z,100061.44
2023-04-16T03:01:40.310Z,100053.84
2023-04-16T03:04:07.221Z,100060.84
2023-04-16T03:06:34.381Z,100067.06
2023-04-16T03:09:01.206Z,100067.97
2023-04-16T03:11:28.268Z,100073.28
2023-04-16T03:13:55.040Z,100069.06
2023-04-16T03:16:22.432Z,100071.72
2023-04-16T03:18:49.420Z,100073.50
2023-04-16T03:21:16.464Z,100075.47
2023-04-16T03:23:43.284Z,100075.47
2023-04-16T03:26:10.363Z,100079.97
2023-04-16T03:28:37.145Z,100085.16
2023-04-16T03:31:04.316Z,100088.91
2023-04-16T03:33:31.277Z,100093.66
2023-04-16T03:35:58.515Z,100104.22
2023-04-16T03:38:26.682Z,100115.38
2023-04-16T03:40:53.983Z,100113.84
2023-04-16T03:43:21.074Z,100124.69
2023-04-16T03:45:48.218Z,100132.59
2023-04-16T03:48:15.894Z,100128.00
2023-04-16T03:50:47.779Z,100127.16
2023-04-16T03:53:14.814Z,100126.50
2023-04-16T03:55:42.580Z,100135.41
2023-04-16T03:58:09.728Z,100136.13
2023-04-16T04:00:36.820Z,100139.59
2023-04-16T04:03:04.011Z,100140.44
2023-04-16T04:05:31.312Z,100143.00
2023-04-16T04:07:58.115Z,100139.41
2023-04-16T04:10:25.498Z,100135.69
2023-04-16T04:12:52.320Z,100131.16
2023-04-16T04:15:19.422Z,100122.19
2023-04-16T04:17:46.358Z,100126.44
2023-04-16T04:20:13.607Z,100137.38
2023-04-16T04:22:40.596Z,100134.50
2023-04-16T04:25:09.977Z,100145.81
2023-04-16T04:27:36.740Z,100136.13
2023-04-16T04:30:04.913Z,100143.63
2023-04-16T04:32:32.108Z,100146.75
2023-04-16T04:35:02.231Z,100147.44
2023-04-16T04:37:29.555Z,100155.88
2023-04-16T04:39:56.787Z,100160.69
2023-04-16T04:42:24.166Z,100150.00
2023-04-16T04:44:51.204Z,100151.59
2023-04-16T04:47:18.022Z,100151.63
2023-04-16T04:49:45.036Z,100149.09
2023-04-16T04:52:11.967Z,100149.25
2023-04-16T04:54:41.694Z,100161.41
2023-04-16T04:57:08.753Z,100162.19
2023-04-16T04:59:35.890Z,100165.53
2023-04-16T05:02:03.494Z,100166.38
2023-04-16T05:04:31.412Z,100167.00
2023-04-16T05:06:58.254Z,100168.84
2023-04-16T05:09:25.390Z,100174.94
2023-04-16T05:11:52.300Z,100172.97
2023-04-16T05:14:19.477Z,100169.31
2023-04-16T05:16:46.348Z,100166.38
2023-04-16T05:19:13.484Z,100168.78
2023-04-16T05:21:40.324Z,100162.53
2023-04-16T05:24:07.379Z,100159.94
2023-04-16T05:26:34.179Z,100164.88
2023-04-16T05:29:01.327Z,100164.97
2023-04-16T05:31:28.147Z,100170.94
2023-04-16T05:33:55.175Z,100180.41
2023-04-16T05:36:23.103Z,100185.44
2023-04-16T05:38:52.273Z,100193.88
2023-04-16T05:41:19.018Z,100197.09
2023-04-16T05:43:46.079Z,100203.06
2023-04-16T05:46:12.940Z,100203.00
2023-04-16T05:48:39.999Z,100201.78
2023-04-16T05:51:06.830Z,100193.47
2023-04-16T05:53:33.932Z,100205.53
2023-04-16T05:56:00.700Z,100203.53
2023-04-16T05:58:27.758Z,100209.41
2023-04-16T06:00:54.671Z,100211.13
2023-04-16T06:03:21.797Z,100207.31
2023-04-16T06:05:48.704Z,100210.38
2023-04-16T06:08:15.953Z,100201.50
2023-04-16T06:10:42.809Z,100202.97
2023-04-16T06:13:09.844Z,100212.25
2023-04-16T06:15:36.636Z,100207.75
2023-04-16T06:18:03.873Z,100210.78
2023-04-16T06:20:31.020Z,100206.22
2023-04-16T06:22:58.279Z,100200.88
2023-04-16T06:25:25.161Z,100199.91
2023-04-16T06:27:52.275Z,100202.13
2023-04-16T06:30:19.893Z,100209.53
2023-04-16T06:32:47.151Z,100199.88
2023-04-16T06:35:14.036Z,100194.38
2023-04-16T06:37:41.418Z,100193.81
2023-04-16T06:40:08.700Z,100194.78
2023-04-16T06:42:35.750Z,100186.75
2023-04-16T06:45:02.706Z,100196.88
2023-04-16T06:47:29.926Z,100199.09
2023-04-16T06:49:56.797Z,100195.88
2023-04-16T06:52:23.886Z,100203.44
2023-04-16T06:54:50.685Z,100191.97
2023-04-16T06:57:17.710Z,100202.69
2023-04-16T06:59:44.489Z,100203.19
2023-04-16T07:02:11.845Z,100208.38
2023-04-16T07:04:39.766Z,100208.53
2023-04-16T07:07:07.100Z,100206.16
2023-04-16T07:09:33.897Z,100208.66
2023-04-16T07:12:01.099Z,100205.38
2023-04-16T07:14:27.881Z,100205.69
2023-04-16T07:16:54.984Z,100206.28
2023-04-16T07:19:21.976Z,100205.28
2023-04-16T07:21:49.116Z,100196.34
2023-04-16T07:24:16.127Z,100207.00
2023-04-16T07:26:43.186Z,100205.72
2023-04-16T07:29:10.249Z,100198.75
2023-04-16T07:31:37.565Z,100202.97
2023-04-16T07:34:04.487Z,100201.78
2023-04-16T07:36:31.891Z,100205.38
2023-04-16T07:38:58.659Z,100200.44
2023-04-16T07:41:25.977Z,100208.16
2023-04-16T07:43:52.785Z,100196.25
2023-04-16T07:46:20.076Z,100200.66
2023-04-16T07:48:46.941Z,100193.78
2023-04-16T07:51:14.316Z,100202.25
2023-04-16T07:53:42.132Z,100206.13
2023-04-16T07:56:09.630Z,100204.03
2023-04-16T07:58:36.743Z,100212.53
2023-04-16T08:01:04.056Z,100201.97
2023-04-16T08:03:31.335Z,100198.22
2023-04-16T08:05:58.940Z,100204.91
2023-04-16T08:08:25.877Z,100203.28
2023-04-16T08:10:55.899Z,100207.66
2023-04-16T08:13:24.007Z,100197.38
2023-04-16T08:15:51.283Z,100200.41
2023-04-16T08:18:19.655Z,100197.19
2023-04-16T08:20:46.817Z,100203.13
2023-04-16T08:23:13.578Z,100196.19
2023-04-16T08:25:40.604Z,100208.03
2023-04-16T08:28:07.370Z,100206.88
2023-04-16T08:30:34.729Z,100205.50
2023-04-16T08:33:01.917Z,100212.47
2023-04-16T08:35:29.143Z,100209.72
2023-04-16T08:37:57.875Z,100210.44
2023-04-16T08:40:29.054Z,100218.09
2023-04-16T08:42:59.453Z,100212.66
2023-04-16T08:45:27.793Z,100216.22
2023-04-16T08:47:54.632Z,100223.28
2023-04-16T08:50:26.738Z,100222.25
2023-04-16T08:52:59.296Z,100220.84
2023-04-16T08:55:39.855Z,100227.22
2023-04-16T08:58:15.466Z,100229.38
2023-04-16T09:00:43.722Z,100227.44
2023-04-16T09:03:11.217Z,100221.56
2023-04-16T09:05:38.998Z,100229.50
2023-04-16T09:08:06.775Z,100232.50
2023-04-16T09:10:34.070Z,100229.16
2023-04-16T09:13:01.310Z,100235.22
2023-04-16T09:15:29.480Z,100235.09
2023-04-16T09:17:59.382Z,100232.69
2023-04-16T09:20:26.491Z,100237.47
2023-04-16T09:22:53.391Z,100242.38
2023-04-16T09:25:22.642Z,100247.03
2023-04-16T09:27:50.936Z,100250.41
2023-04-16T09:30:26.159Z,100242.53
2023-04-16T09:33:11.676Z,100239.38
2023-04-16T09:35:49.682Z,100244.16
2023-04-16T09:38:17.149Z,100248.19
2023-04-16T09:40:44.367Z,100251.06
2023-04-16T09:43:15.801Z,100244.88
2023-04-16T09:45:54.314Z,100258.88
2023-04-16T09:48:31.934Z,100257.81
2023-04-16T09:51:00.421Z,100255.09
2023-04-16T09:53:31.828Z,100262.81
2023-04-16T09:56:00.787Z,100258.53
2023-04-16T09:58:28.631Z,100254.38
2023-04-16T10:01:07.686Z,100254.59
2023-04-16T10:03:36.775Z,100242.25
2023-04-16T10:06:07.992Z,100247.28
2023-04-16T10:08:34.905Z,100243.19
2023-04-16T10:11:02.534Z,100239.25
2023-04-16T10:13:31.156Z,100236.19
2023-04-16T10:15:58.878Z,100231.03
2023-04-16T10:18:25.843Z,100228.34
2023-04-16T10:20:53.128Z,100225.66
2023-04-16T10:23:21.962Z,100231.31
2023-04-16T10:25:50.069Z,100224.31
2023-04-16T10:28:17.142Z,100219.19
2023-04-16T10:30:52.690Z,100229.00
2023-04-16T10:33:27.301Z,100217.31
2023-04-16T10:36:09.852Z,100220.50
2023-04-16T10:38:40.151Z,100222.69
2023-04-16T10:41:09.006Z,100211.19
2023-04-16T10:43:50.298Z,100216.75
2023-04-16T10:46:31.703Z,100206.81
2023-04-16T10:49:31.536Z,100210.88
2023-04-16T10:52:14.916Z,100204.94
2023-04-16T10:54:41.772Z,100205.41
2023-04-16T10:57:12.289Z,100202.19
2023-04-16T10:59:41.974Z,100203.00
2023-04-16T11:02:14.196Z,100197.16
2023-04-16T11:04:45.123Z,100186.03
2023-04-16T11:07:15.375Z,100188.53
2023-04-16T11:09:52.812Z,100182.16
2023-04-16T11:12:21.030Z,100181.59
2023-04-16T11:14:53.297Z,100186.25
2023-04-16T11:17:21.709Z,100182.16
2023-04-16T11:19:48.761Z,100187.06
2023-04-16T11:22:17.687Z,100198.16
2023-04-16T11:24:46.264Z,100184.16
2023-04-16T11:27:15.213Z,100185.13
2023-04-16T11:29:42.356Z,100189.72
2023-04-16T11:32:09.478Z,100188.25
2023-04-16T11:34:44.843Z,100182.28
2023-04-16T11:37:12.117Z,100173.50
2023-04-16T11:39:52.758Z,100172.81
2023-04-16T11:42:23.359Z,100179.84
2023-04-16T11:44:58.200Z,100174.81
2023-04-16T11:47:25.494Z,100184.53
2023-04-16T11:49:52.386Z,100187.63
2023-04-16T11:52:36.377Z,100183.75
2023-04-16T11:55:03.073Z,100183.53
2023-04-16T11:57:31.864Z,100171.25
2023-04-16T12:00:01.554Z,100175.03
2023-04-16T12:02:53.190Z,100168.44
2023-04-16T12:05:38.905Z,100175.03
2023-04-16T12:08:10.668Z,100168.84
2023-04-16T12:10:55.994Z,100164.69
2023-04-16T12:13:23.097Z,100173.66
2023-04-16T12:15:52.132Z,100166.72
2023-04-16T12:18:22.520Z,100169.78
2023-04-16T12:20:53.436Z,100155.53
2023-04-16T12:23:30.728Z,100161.25
2023-04-16T12:26:02.546Z,100163.59
2023-04-16T12:28:35.960Z,100161.88
2023-04-16T12:31:03.694Z,100168.63
2023-04-16T12:33:31.359Z,100160.06
2023-04-16T12:35:58.504Z,100161.63
2023-04-16T12:38:33.735Z,100153.19
2023-04-16T12:41:02.429Z,100150.31
2023-04-16T12:43:29.536Z,100144.00
2023-04-16T12:45:57.714Z,100143.34
2023-04-16T12:48:25.049Z,100138.88
2023-04-16T12:50:54.430Z,100136.75
2023-04-16T12:53:21.542Z,100130.16
2023-04-16T12:55:48.529Z,100137.03
2023-04-16T12:58:15.600Z,100134.38
2023-04-16T13:00:42.383Z,100131.56
2023-04-16T13:03:09.525Z,100128.34
2023-04-16T13:05:36.524Z,100130.72
2023-04-16T13:08:03.640Z,100126.88
2023-04-16T13:10:30.431Z,100122.00
2023-04-16T13:12:57.498Z,100125.59
2023-04-16T13:15:24.494Z,100125.75
2023-04-16T13:17:51.643Z,100124.78
2023-04-16T13:20:18.460Z,100117.56
2023-04-16T13:22:45.606Z,100110.69
2023-04-16T13:25:12.390Z,100115.56
2023-04-16T13:27:39.481Z,100113.81
2023-04-16T13:30:07.715Z,100112.19
2023-04-16T13:32:34.871Z,100114.13
2023-04-16T13:35:01.661Z,100108.19
2023-04-16T13:37:28.766Z,100104.56
2023-04-16T13:39:56.526Z,100110.75
2023-04-16T13:42:23.593Z,100099.19
2023-04-16T13:44:53.163Z,100105.81
2023-04-16T13:47:20.447Z,100102.66
2023-04-16T13:49:47.622Z,100098.50
2023-04-16T13:52:14.689Z,100100.38
2023-04-16T13:54:41.604Z,100104.78
2023-04-16T13:57:08.737Z,100105.13
2023-04-16T13:59:35.606Z,100096.03
2023-04-16T14:02:02.853Z,100096.03
2023-04-16T14:04:29.690Z,100087.88
2023-04-16T14:06:57.057Z,100097.28
2023-04-16T14:09:24.453Z,100089.44
2023-04-16T14:11:51.559Z,100088.91
2023-04-16T14:14:18.492Z,100100.72
2023-04-16T14:16:45.726Z,100100.97
2023-04-16T14:19:13.376Z,100100.44
2023-04-16T14:21:43.310Z,100100.00
2023-04-16T14:24:10.541Z,100097.78
2023-04-16T14:26:37.587Z,100093.31
2023-04-16T14:29:05.381Z,100094.97
2023-04-16T14:31:33.582Z,100089.09
2023-04-16T14:34:00.714Z,100084.59
2023-04-16T14:36:27.886Z,100085.69
2023-04-16T14:38:54.753Z,100086.53
2023-04-16T14:41:21.912Z,100081.94
2023-04-16T14:43:49.007Z,100075.47
2023-04-16T14:46:19.364Z,100075.75
2023-04-16T14:48:46.297Z,100083.22
2023-04-16T14:51:13.437Z,100082.75
2023-04-16T14:53:40.792Z,100084.59
2023-04-16T14:56:07.891Z,100083.31
2023-04-16T14:58:37.877Z,100084.16
2023-04-16T15:01:06.229Z,100080.91
2023-04-16T15:03:33.390Z,100077.16
2023-04-16T15:06:01.886Z,100075.06
2023-04-16T15:08:28.695Z,100066.03
2023-04-16T15:10:55.940Z,100067.38
2023-04-16T15:13:22.813Z,100067.66
2023-04-16T15:15:50.106Z,100068.25
2023-04-16T15:18:16.944Z,100072.59
2023-04-16T15:20:44.400Z,100072.88
2023-04-16T15:23:11.160Z,100064.84
2023-04-16T15:25:38.271Z,100054.41
2023-04-16T15:28:08.061Z,100059.59
2023-04-16T15:30:35.189Z,100055.56
2023-04-16T15:33:02.089Z,100053.88
2023-04-16T15:35:29.332Z,100055.63
2023-04-16T15:37:56.093Z,100065.28
2023-04-16T15:40:24.414Z,100066.81
2023-04-16T15:42:51.309Z,100059.56
2023-04-16T15:45:18.495Z,100070.41
2023-04-16T15:47:48.061Z,100072.09
2023-04-16T15:50:15.325Z,100068.84
2023-04-16T15:52:42.407Z,100068.16
2023-04-16T15:55:10.093Z,100065.63
2023-04-16T15:57:37.077Z,100067.66
2023-04-16T16:00:13.877Z,100065.16
2023-04-16T16:02:41.915Z,100074.66
2023-04-16T16:05:14.288Z,100073.31
2023-04-16T16:07:41.974Z,100068.78
2023-04-16T16:10:10.627Z,100071.41
2023-04-16T16:12:37.688Z,100081.06
2023-04-16T16:15:06.468Z,100080.94
2023-04-16T16:17:33.343Z,100084.84
2023-04-16T16:20:00.601Z,100075.66
2023-04-16T16:22:27.481Z,100080.44
2023-04-16T16:24:56.465Z,100074.81
2023-04-16T16:27:23.262Z,100082.13
2023-04-16T16:29:50.445Z,100086.59
2023-04-16T16:32:17.185Z,100087.41
2023-04-16T16:34:44.238Z,100084.84
2023-04-16T16:37:11.120Z,100079.94
2023-04-16T16:39:38.848Z,100081.91
2023-04-16T16:42:06.057Z,100079.66
2023-04-16T16:44:33.538Z,100084.19
2023-04-16T16:47:00.647Z,100085.28
2023-04-16T16:49:27.827Z,100086.53
2023-04-16T16:51:54.671Z,100086.69
2023-04-16T16:54:21.706Z,100083.28
2023-04-16T16:56:48.458Z,100087.06
2023-04-16T16:59:15.541Z,100087.91
2023-04-16T17:01:42.360Z,100087.59
2023-04-16T17:04:09.640Z,100091.91
2023-04-16T17:06:36.912Z,100089.94
2023-04-16T17:09:04.078Z,100099.13
2023-04-16T17:11:31.267Z,100092.66
2023-04-16T17:13:58.337Z,100096.56
2023-04-16T17:16:25.416Z,100097.22
2023-04-16T17:18:52.562Z,100099.31
2023-04-16T17:21:19.358Z,100096.56
2023-04-16T17:23:46.427Z,100096.25
2023-04-16T17:26:13.289Z,100105.44
2023-04-16T17:28:40.808Z,100105.63
2023-04-16T17:31:08.498Z,100103.47
2023-04-16T17:33:35.822Z,100097.59
2023-04-16T17:36:02.827Z,100105.94
2023-04-16T17:38:30.032Z,100110.22
2023-04-16T17:40:57.886Z,100110.38
2023-04-16T17:43:24.953Z,100110.50
2023-04-16T17:45:51.756Z,100110.31
2023-04-16T17:48:18.817Z,100110.81
2023-04-16T17:50:45.568Z,100121.16
2023-04-16T17:53:12.697Z,100121.91
2023-04-16T17:55:39.457Z,100124.72
2023-04-16T17:58:06.538Z,100122.19
2023-04-16T18:00:33.470Z,100141.41
2023-04-16T18:03:00.720Z,100138.53
2023-04-16T18:05:27.750Z,100139.06
2023-04-16T18:07:55.675Z,100142.72
2023-04-16T18:10:22.557Z,100150.19
2023-04-16T18:12:49.617Z,100147.31
2023-04-16T18:15:16.685Z,100151.28
2023-04-16T18:17:43.870Z,100160.53
2023-04-16T18:20:12.606Z,100161.38
2023-04-16T18:22:39.787Z,100155.72
2023-04-16T18:25:07.132Z,100154.88
2023-04-16T18:27:34.441Z,100155.94
2023-04-16T18:30:01.417Z,100141.13
2023-04-16T18:32:31.000Z,100138.13
2023-04-16T18:34:58.078Z,100133.75
2023-04-16T18:37:25.333Z,100131.69
2023-04-16T18:39:52.212Z,100132.88
2023-04-16T18:42:19.264Z,100143.09
2023-04-16T18:44:52.390Z,100135.41
2023-04-16T18:47:19.576Z,100142.38
2023-04-16T18:49:46.824Z,100126.94
2023-04-16T18:52:13.975Z,100130.31
2023-04-16T18:54:41.047Z,100131.78
2023-04-16T18:57:08.207Z,100124.91
2023-04-16T18:59:34.994Z,100120.66
2023-04-16T19:02:02.286Z,100134.75
2023-04-16T19:04:29.242Z,100131.28
2023-04-16T19:06:56.681Z,100130.56
2023-04-16T19:09:25.387Z,100124.03
2023-04-16T19:11:52.490Z,100122.84
2023-04-16T19:14:19.356Z,100124.03
2023-04-16T19:16:47.369Z,100131.41
2023-04-16T19:19:14.412Z,100143.19
2023-04-16T19:21:41.455Z,100133.78
2023-04-16T19:24:08.562Z,100132.09
2023-04-16T19:26:38.250Z,100133.03
2023-04-16T19:29:05.227Z,100130.63
2023-04-16T19:31:32.459Z,100129.28
2023-04-16T19:33:59.657Z,100131.81
2023-04-16T19:36:27.239Z,100129.66
2023-04-16T19:38:54.017Z,100124.66
2023-04-16T19:41:21.218Z,100129.56
2023-04-16T19:43:48.593Z,100128.72
2023-04-16T19:46:16.710Z,100135.56
2023-04-16T19:48:43.518Z,100132.31
2023-04-16T19:51:10.663Z,100132.53
2023-04-16T19:53:37.436Z,100129.78
2023-04-16T19:56:04.741Z,100128.06
2023-04-16T19:58:31.489Z,100126.19
2023-04-16T20:00:58.633Z,100128.84
2023-04-16T20:03:28.521Z,100127.75
2023-04-16T20:05:55.763Z,100116.06
2023-04-16T20:08:22.540Z,100120.88
2023-04-16T20:10:49.594Z,100117.03
2023-04-16T20:13:18.554Z,100111.13
2023-04-16T20:15:47.173Z,100118.31
2023-04-16T20:18:14.000Z,100118.97
2023-04-16T20:20:41.544Z,100119.41
2023-04-16T20:23:08.340Z,100126.63
2023-04-16T20:25:35.444Z,100117.94
2023-04-16T20:28:02.263Z,100119.75
2023-04-16T20:30:29.516Z,100126.97
2023-04-16T20:32:56.676Z,100119.03
2023-04-16T20:35:23.857Z,100128.78
2023-04-16T20:37:50.649Z,100122.63
2023-04-16T20:40:17.763Z,100120.09
2023-04-16T20:42:47.613Z,100126.13
2023-04-16T20:45:14.700Z,100126.75
2023-04-16T20:47:43.502Z,100120.59
2023-04-16T20:50:11.250Z,100110.97
2023-04-16T20:52:38.131Z,100120.09
2023-04-16T20:55:05.868Z,100116.94
2023-04-16T20:57:32.781Z,100121.63
2023-04-16T20:59:59.928Z,100117.19
2023-04-16T21:02:28.192Z,100117.38
2023-04-16T21:04:55.947Z,100120.16
2023-04-16T21:07:22.943Z,100117.00
2023-04-16T21:09:50.076Z,100113.69
2023-04-16T21:12:16.996Z,100120.88
2023-04-16T21:14:48.638Z,100124.94
2023-04-16T21:17:15.461Z,100119.13
2023-04-16T21:19:42.566Z,100110.34
2023-04-16T21:22:09.413Z,100109.50
2023-04-16T21:24:36.593Z,100101.94
2023-04-16T21:27:03.557Z,100097.00
2023-04-16T21:29:33.339Z,100096.63
2023-04-16T21:32:00.299Z,100092.38
2023-04-16T21:34:27.626Z,100098.75
2023-04-16T21:36:54.483Z,100099.47
2023-04-16T21:39:21.835Z,100101.72
2023-04-16T21:41:51.309Z,100099.59
2023-04-16T21:44:18.438Z,100102.56
2023-04-16T21:46:45.317Z,100102.06
2023-04-16T21:49:12.656Z,100100.59
2023-04-16T21:51:40.749Z,100090.31
2023-04-16T21:54:07.919Z,100090.88
2023-04-16T21:56:34.669Z,100086.66
2023-04-16T21:59:01.811Z,100099.16
2023-04-16T22:01:29.028Z,100095.03
2023-04-16T22:03:56.198Z,100089.00
2023-04-16T22:06:23.186Z,100098.22
2023-04-16T22:08:50.365Z,100093.06
2023-04-16T22:11:17.150Z,100092.81
2023-04-16T22:13:46.398Z,100090.28
2023-04-16T22:16:13.337Z,100086.69
2023-04-16T22:18:41.235Z,100081.72
2023-04-16T22:21:08.063Z,100084.88
2023-04-16T22:23:35.187Z,100077.78
2023-04-16T22:26:02.740Z,100078.16
2023-04-16T22:28:29.956Z,100075.03
2023-04-16T22:30:56.964Z,100081.00
2023-04-16T22:33:24.044Z,100079.19
2023-04-16T22:35:50.833Z,100076.34
2023-04-16T22:38:17.896Z,100071.91
2023-04-16T22:40:47.358Z,100072.09
2023-04-16T22:43:14.504Z,100071.97
2023-04-16T22:45:41.324Z,100076.97
2023-04-16T22:48:08.539Z,100074.56
2023-04-16T22:50:35.326Z,100072.66
2023-04-16T22:53:02.376Z,100065.56
2023-04-16T22:55:30.640Z,100064.81
2023-04-16T22:57:57.777Z,100063.03
2023-04-16T23:00:24.972Z,100061.22
2023-04-16T23:02:52.523Z,100066.50
2023-04-16T23:05:19.426Z,100058.47
2023-04-16T23:07:46.509Z,100061.09
2023-04-16T23:10:13.386Z,100056.06
2023-04-16T23:12:40.597Z,100057.75
2023-04-16T23:15:07.673Z,100053.28
2023-04-16T23:17:35.189Z,100053.53
2023-04-16T23:20:02.483Z,100056.06
2023-04-16T23:22:29.557Z,100054.78
2023-04-16T23:24:56.385Z,100036.81
2023-04-16T23:27:23.524Z,100048.25
2023-04-16T23:29:50.720Z,100047.59
2023-04-16T23:32:17.857Z,100047.72
2023-04-16T23:34:44.798Z,100044.34
2023-04-16T23:37:11.946Z,100036.72
2023-04-16T23:39:38.760Z,100040.22
2023-04-16T23:42:06.130Z,100040.09
2023-04-16T23:44:33.063Z,100033.00
2023-04-16T23:47:00.480Z,100022.97
2023-04-16T23:49:27.377Z,100030.03
2023-04-16T23:51:54.438Z,100021.03
2023-04-16T23:54:21.426Z,100024.44
2023-04-16T23:56:48.880Z,100018.63
2023-04-16T23:59:16.780Z,100029.19
